createdAt,value
2019-03-23T00:00:53.882Z,7.92
2019-03-23T00:01:53.871Z,7.85
2019-03-23T00:02:53.856Z,7.80
2019-03-23T00:03:53.858Z,7.80
2019-03-23T00:04:53.832Z,7.80
2019-03-23T00:05:53.825Z,7.74
2019-03-23T00:06:53.813Z,7.69
2019-03-23T00:07:53.796Z,7.67
2019-03-23T00:08:53.813Z,7.63
2019-03-23T00:09:53.775Z,7.64
2019-03-23T00:10:53.773Z,7.57
2019-03-23T00:11:53.767Z,7.50
2019-03-23T00:12:53.738Z,7.61
2019-03-23T00:13:53.751Z,7.53
2019-03-23T00:14:53.727Z,7.53
2019-03-23T00:15:53.722Z,7.52
2019-03-23T00:16:53.705Z,7.46
2019-03-23T00:17:53.680Z,7.53
2019-03-23T00:18:53.694Z,7.49
2019-03-23T00:19:53.664Z,7.55
2019-03-23T00:20:53.661Z,7.53
2019-03-23T00:21:53.655Z,7.53
2019-03-23T00:22:53.632Z,7.52
2019-03-23T00:23:53.651Z,7.50
2019-03-23T00:24:53.613Z,7.50
2019-03-23T00:25:53.600Z,7.50
2019-03-23T00:26:53.591Z,7.58
2019-03-23T00:27:53.579Z,7.58
2019-03-23T00:28:53.575Z,7.50
2019-03-23T00:29:53.558Z,7.48
2019-03-23T00:30:53.547Z,7.46
2019-03-23T00:31:53.528Z,7.53
2019-03-23T00:32:53.527Z,7.57
2019-03-23T00:33:53.529Z,7.46
2019-03-23T00:34:53.503Z,7.50
2019-03-23T00:35:53.485Z,7.40
2019-03-23T00:36:53.491Z,7.48
2019-03-23T00:37:53.479Z,7.53
2019-03-23T00:38:53.478Z,7.48
2019-03-23T00:39:53.464Z,7.52
2019-03-23T00:40:53.449Z,7.43
2019-03-23T00:41:53.422Z,7.40
2019-03-23T00:42:53.417Z,7.45
2019-03-23T00:43:53.405Z,7.43
2019-03-23T00:44:53.414Z,7.45
2019-03-23T00:45:53.415Z,7.46
2019-03-23T00:46:53.366Z,7.42
2019-03-23T00:47:53.349Z,7.37
2019-03-23T00:48:53.339Z,7.42
2019-03-23T00:49:53.348Z,7.35
2019-03-23T00:50:53.318Z,7.32
2019-03-23T00:51:53.304Z,7.31
2019-03-23T00:52:53.299Z,7.31
2019-03-23T00:53:53.285Z,7.37
2019-03-23T00:54:53.289Z,7.23
2019-03-23T00:55:53.263Z,7.32
2019-03-23T00:56:53.271Z,7.30
2019-03-23T00:57:53.242Z,7.27
2019-03-23T00:58:53.237Z,7.30
2019-03-23T00:59:53.236Z,7.27
2019-03-23T01:00:53.211Z,7.28
2019-03-23T01:01:53.197Z,7.35
2019-03-23T01:02:53.184Z,7.30
2019-03-23T01:03:53.170Z,7.32
2019-03-23T01:04:53.171Z,7.35
2019-03-23T01:05:53.157Z,7.34
2019-03-23T01:06:53.138Z,7.42
2019-03-23T01:07:53.134Z,7.35
2019-03-23T01:08:53.115Z,7.42
2019-03-23T01:09:53.148Z,7.42
2019-03-23T01:10:53.119Z,7.48
2019-03-23T01:11:53.093Z,7.43
2019-03-23T01:12:53.076Z,7.37
2019-03-23T01:13:53.063Z,7.37
2019-03-23T01:14:53.084Z,7.42
2019-03-23T01:15:53.065Z,7.35
2019-03-23T01:16:53.036Z,7.32
2019-03-23T01:17:53.050Z,7.35
2019-03-23T01:18:53.013Z,7.35
2019-03-23T01:19:53.023Z,7.35
2019-03-23T01:20:52.981Z,7.39
2019-03-23T01:21:52.986Z,7.43
2019-03-23T01:22:52.969Z,7.32
2019-03-23T01:23:52.960Z,7.34
2019-03-23T01:24:52.969Z,7.39
2019-03-23T01:25:52.934Z,7.34
2019-03-23T01:26:52.935Z,7.32
2019-03-23T01:27:52.907Z,7.35
2019-03-23T01:28:52.910Z,7.39
2019-03-23T01:29:52.896Z,7.40
2019-03-23T01:30:52.906Z,7.39
2019-03-23T01:31:52.874Z,7.31
2019-03-23T01:32:52.848Z,7.32
2019-03-23T01:33:52.847Z,7.32
2019-03-23T01:34:52.857Z,7.30
2019-03-23T01:35:52.827Z,7.25
2019-03-23T01:37:02.434Z,7.24
2019-03-23T01:37:53.807Z,7.35
2019-03-23T01:38:52.799Z,7.37
2019-03-23T01:39:52.796Z,7.42
2019-03-23T01:40:52.767Z,7.35
2019-03-23T01:41:52.754Z,7.39
2019-03-23T01:42:52.751Z,7.39
2019-03-23T01:43:52.747Z,7.46
2019-03-23T01:44:52.730Z,7.39
2019-03-23T01:45:52.717Z,7.35
2019-03-23T01:46:52.706Z,7.37
2019-03-23T01:47:52.690Z,7.48
2019-03-23T01:48:52.695Z,7.43
2019-03-23T01:49:52.676Z,7.35
2019-03-23T01:50:52.652Z,7.42
2019-03-23T01:51:52.658Z,7.39
2019-03-23T01:52:52.648Z,7.43
2019-03-23T01:53:52.634Z,7.48
2019-03-23T01:54:52.637Z,7.52
2019-03-23T01:55:52.592Z,7.49
2019-03-23T01:56:52.589Z,7.50
2019-03-23T01:57:52.595Z,7.48
2019-03-23T01:58:52.615Z,7.48
2019-03-23T01:59:52.552Z,7.52
2019-03-23T02:00:52.566Z,7.49
2019-03-23T02:01:52.540Z,7.46
2019-03-23T02:02:52.529Z,7.52
2019-03-23T02:03:52.517Z,7.50
2019-03-23T02:04:52.499Z,7.42
2019-03-23T02:05:52.497Z,7.39
2019-03-23T02:06:52.489Z,7.27
2019-03-23T02:07:52.475Z,7.32
2019-03-23T02:08:52.454Z,7.28
2019-03-23T02:09:52.455Z,7.37
2019-03-23T02:10:52.525Z,7.32
2019-03-23T02:11:52.437Z,7.37
2019-03-23T02:12:52.421Z,7.31
2019-03-23T02:13:52.442Z,7.31
2019-03-23T02:14:52.396Z,7.32
2019-03-23T02:15:52.395Z,7.35
2019-03-23T02:16:52.364Z,7.27
2019-03-23T02:17:52.358Z,7.23
2019-03-23T02:18:52.344Z,7.24
2019-03-23T02:19:52.347Z,7.15
2019-03-23T02:20:52.336Z,7.24
2019-03-23T02:21:52.317Z,7.24
2019-03-23T02:22:52.311Z,7.23
2019-03-23T02:23:52.290Z,7.23
2019-03-23T02:24:52.289Z,7.23
2019-03-23T02:25:52.297Z,7.23
2019-03-23T02:26:52.264Z,7.32
2019-03-23T02:27:52.266Z,7.30
2019-03-23T02:28:52.238Z,7.21
2019-03-23T02:29:52.235Z,7.16
2019-03-23T02:30:52.263Z,7.16
2019-03-23T02:31:52.208Z,7.16
2019-03-23T02:32:52.186Z,7.16
2019-03-23T02:33:52.191Z,7.17
2019-03-23T02:34:52.167Z,7.16
2019-03-23T02:35:52.175Z,7.16
2019-03-23T02:36:52.150Z,7.20
2019-03-23T02:37:52.155Z,7.21
2019-03-23T02:38:52.126Z,7.13
2019-03-23T02:39:52.131Z,7.17
2019-03-23T02:40:52.141Z,7.25
2019-03-23T02:41:52.093Z,7.20
2019-03-23T02:42:52.086Z,7.16
2019-03-23T02:43:52.078Z,7.16
2019-03-23T02:44:52.070Z,7.17
2019-03-23T02:45:52.077Z,7.23
2019-03-23T02:46:52.046Z,7.21
2019-03-23T02:47:52.030Z,7.21
2019-03-23T02:48:52.016Z,7.30
2019-03-23T02:49:52.009Z,7.25
2019-03-23T02:50:52.014Z,7.28
2019-03-23T02:51:51.985Z,7.34
2019-03-23T02:52:51.982Z,7.32
2019-03-23T02:53:51.964Z,7.32
2019-03-23T02:54:51.948Z,7.37
2019-03-23T02:55:51.976Z,7.39
2019-03-23T02:56:51.929Z,7.48
2019-03-23T02:57:51.913Z,7.39
2019-03-23T02:58:51.918Z,7.37
2019-03-23T02:59:51.894Z,7.46
2019-03-23T03:00:51.905Z,7.43
2019-03-23T03:01:51.866Z,7.52
2019-03-23T03:02:51.879Z,7.46
2019-03-23T03:03:51.854Z,7.46
2019-03-23T03:04:51.841Z,7.49
2019-03-23T03:05:51.843Z,7.52
2019-03-23T03:06:51.833Z,7.60
2019-03-23T03:07:51.817Z,7.48
2019-03-23T03:08:51.793Z,7.52
2019-03-23T03:09:51.795Z,7.50
2019-03-23T03:10:51.779Z,7.52
2019-03-23T03:11:51.794Z,7.52
2019-03-23T03:12:51.751Z,7.49
2019-03-23T03:13:51.740Z,7.52
2019-03-23T03:14:51.735Z,7.50
2019-03-23T03:15:51.722Z,7.49
2019-03-23T03:16:51.728Z,7.50
2019-03-23T03:17:51.698Z,7.57
2019-03-23T03:18:51.683Z,7.48
2019-03-23T03:19:51.675Z,7.50
2019-03-23T03:20:51.658Z,7.55
2019-03-23T03:21:51.670Z,7.52
2019-03-23T03:22:51.651Z,7.49
2019-03-23T03:23:51.631Z,7.48
2019-03-23T03:24:51.617Z,7.45
2019-03-23T03:25:51.606Z,7.49
2019-03-23T03:26:51.610Z,7.52
2019-03-23T03:27:51.587Z,7.48
2019-03-23T03:28:51.572Z,7.52
2019-03-23T03:29:51.564Z,7.49
2019-03-23T03:30:51.553Z,7.46
2019-03-23T03:31:51.557Z,7.50
2019-03-23T03:32:51.538Z,7.49
2019-03-23T03:33:51.529Z,7.49
2019-03-23T03:34:51.503Z,7.46
2019-03-23T03:35:51.495Z,7.52
2019-03-23T03:36:51.512Z,7.48
2019-03-23T03:37:56.928Z,7.46
2019-03-23T03:38:52.459Z,7.37
2019-03-23T03:39:51.470Z,7.42
2019-03-23T03:40:51.436Z,7.43
2019-03-23T03:41:51.434Z,7.39
2019-03-23T03:42:51.446Z,7.34
2019-03-23T03:43:51.407Z,7.31
2019-03-23T03:44:51.397Z,7.31
2019-03-23T03:45:51.392Z,7.34
2019-03-23T03:46:51.368Z,7.35
2019-03-23T03:47:51.391Z,7.35
2019-03-23T03:48:51.348Z,7.42
2019-03-23T03:49:51.361Z,7.42
2019-03-23T03:50:51.332Z,7.46
2019-03-23T03:51:51.324Z,7.52
2019-03-23T03:52:51.380Z,7.48
2019-03-23T03:53:51.291Z,7.50
2019-03-23T03:54:51.297Z,7.42
2019-03-23T03:55:51.268Z,7.49
2019-03-23T03:56:51.267Z,7.48
2019-03-23T03:57:51.269Z,7.49
2019-03-23T03:58:51.251Z,7.49
2019-03-23T03:59:51.235Z,7.46
2019-03-23T04:00:51.222Z,7.45
2019-03-23T04:01:51.217Z,7.49
2019-03-23T04:02:51.205Z,7.49
2019-03-23T04:03:51.186Z,7.50
2019-03-23T04:04:51.179Z,7.39
2019-03-23T04:05:51.173Z,7.48
2019-03-23T04:06:51.167Z,7.40
2019-03-23T04:07:51.172Z,7.50
2019-03-23T04:08:51.145Z,7.48
2019-03-23T04:09:51.126Z,7.46
2019-03-23T04:10:51.101Z,7.49
2019-03-23T04:11:51.090Z,7.48
2019-03-23T04:12:51.109Z,7.42
2019-03-23T04:13:51.072Z,7.49
2019-03-23T04:14:51.069Z,7.50
2019-03-23T04:15:51.056Z,7.53
2019-03-23T04:16:51.046Z,7.49
2019-03-23T04:17:51.044Z,7.48
2019-03-23T04:18:51.026Z,7.49
2019-03-23T04:19:51.007Z,7.46
2019-03-23T04:20:50.993Z,7.49
2019-03-23T04:21:50.998Z,7.45
2019-03-23T04:22:50.983Z,7.50
2019-03-23T04:23:50.978Z,7.45
2019-03-23T04:24:50.950Z,7.53
2019-03-23T04:25:50.944Z,7.49
2019-03-23T04:26:50.926Z,7.61
2019-03-23T04:27:50.922Z,7.49
2019-03-23T04:28:50.917Z,7.48
2019-03-23T04:29:50.915Z,7.49
2019-03-23T04:30:50.893Z,7.57
2019-03-23T04:31:50.883Z,7.49
2019-03-23T04:32:50.862Z,7.48
2019-03-23T04:33:50.873Z,7.50
2019-03-23T04:34:50.847Z,7.50
2019-03-23T04:35:50.830Z,7.49
2019-03-23T04:36:50.823Z,7.46
2019-03-23T04:37:50.817Z,7.48
2019-03-23T04:38:50.813Z,7.45
2019-03-23T04:39:50.790Z,7.49
2019-03-23T04:40:50.787Z,7.42
2019-03-23T04:41:50.761Z,7.46
2019-03-23T04:42:50.752Z,7.50
2019-03-23T04:43:50.759Z,7.50
2019-03-23T04:44:50.743Z,7.48
2019-03-23T04:45:50.723Z,7.43
2019-03-23T04:46:50.708Z,7.42
2019-03-23T04:47:50.697Z,7.43
2019-03-23T04:48:50.696Z,7.42
2019-03-23T04:49:50.685Z,7.35
2019-03-23T04:50:50.659Z,7.45
2019-03-23T04:51:50.667Z,7.46
2019-03-23T04:52:50.639Z,7.40
2019-03-23T04:53:50.645Z,7.48
2019-03-23T04:54:50.627Z,7.45
2019-03-23T04:55:50.628Z,7.49
2019-03-23T04:56:50.595Z,7.46
2019-03-23T04:57:50.625Z,7.43
2019-03-23T04:58:50.591Z,7.43
2019-03-23T04:59:50.574Z,7.42
2019-03-23T05:00:50.557Z,7.40
2019-03-23T05:01:50.535Z,7.45
2019-03-23T05:02:50.541Z,7.45
2019-03-23T05:03:50.547Z,7.39
2019-03-23T05:04:50.507Z,7.52
2019-03-23T05:05:50.491Z,7.49
2019-03-23T05:06:50.497Z,7.48
2019-03-23T05:07:50.483Z,7.39
2019-03-23T05:08:50.478Z,7.43
2019-03-23T05:09:50.454Z,7.45
2019-03-23T05:10:50.438Z,7.55
2019-03-23T05:11:50.434Z,7.37
2019-03-23T05:12:50.434Z,7.42
2019-03-23T05:13:50.430Z,7.39
2019-03-23T05:14:50.395Z,7.46
2019-03-23T05:15:50.397Z,7.35
2019-03-23T05:16:50.372Z,7.35
2019-03-23T05:17:50.374Z,7.32
2019-03-23T05:18:50.385Z,7.37
2019-03-23T05:19:50.374Z,7.32
2019-03-23T05:20:50.340Z,7.37
2019-03-23T05:21:50.342Z,7.32
2019-03-23T05:22:50.315Z,7.35
2019-03-23T05:23:50.332Z,7.35
2019-03-23T05:24:50.300Z,7.35
2019-03-23T05:25:50.288Z,7.37
2019-03-23T05:26:50.268Z,7.39
2019-03-23T05:27:50.252Z,7.37
2019-03-23T05:28:50.275Z,7.39
2019-03-23T05:29:50.260Z,7.31
2019-03-23T05:30:50.230Z,7.32
2019-03-23T05:31:50.225Z,7.37
2019-03-23T05:32:50.204Z,7.31
2019-03-23T05:33:50.212Z,7.37
2019-03-23T05:34:50.178Z,7.39
2019-03-23T05:35:50.173Z,7.27
2019-03-23T05:36:50.158Z,7.32
2019-03-23T05:37:50.155Z,7.30
2019-03-23T05:38:50.146Z,7.28
2019-03-23T05:39:50.134Z,7.34
2019-03-23T05:40:50.110Z,7.35
2019-03-23T05:41:50.109Z,7.34
2019-03-23T05:42:50.082Z,7.40
2019-03-23T05:43:50.102Z,7.42
2019-03-23T05:44:50.068Z,7.46
2019-03-23T05:45:50.060Z,7.35
2019-03-23T05:46:50.041Z,7.39
2019-03-23T05:47:50.046Z,7.37
2019-03-23T05:48:50.034Z,7.34
2019-03-23T05:49:50.004Z,7.34
2019-03-23T05:50:50.011Z,7.39
2019-03-23T05:51:49.997Z,7.39
2019-03-23T05:52:49.975Z,7.37
2019-03-23T05:53:50.000Z,7.35
2019-03-23T05:54:49.957Z,7.34
2019-03-23T05:55:49.945Z,7.35
2019-03-23T05:56:49.935Z,7.35
2019-03-23T05:57:49.929Z,7.37
2019-03-23T05:58:49.926Z,7.35
2019-03-23T05:59:49.922Z,7.31
2019-03-23T06:00:49.893Z,7.34
2019-03-23T06:01:49.884Z,7.32
2019-03-23T06:02:49.873Z,7.43
2019-03-23T06:03:49.869Z,7.34
2019-03-23T06:04:49.869Z,7.37
2019-03-23T06:05:49.838Z,7.37
2019-03-23T06:06:49.851Z,7.49
2019-03-23T06:07:49.817Z,7.49
2019-03-23T06:08:55.028Z,7.48
2019-03-23T06:09:50.805Z,7.48
2019-03-23T06:10:49.775Z,7.49
2019-03-23T06:11:49.777Z,7.50
2019-03-23T06:12:49.756Z,7.50
2019-03-23T06:13:49.743Z,7.48
2019-03-23T06:14:49.762Z,7.50
2019-03-23T06:15:49.755Z,7.60
2019-03-23T06:16:49.718Z,7.55
2019-03-23T06:17:49.699Z,7.49
2019-03-23T06:18:49.702Z,7.48
2019-03-23T06:19:49.691Z,7.57
2019-03-23T06:20:49.672Z,7.49
2019-03-23T06:21:49.662Z,7.61
2019-03-23T06:22:49.654Z,7.52
2019-03-23T06:23:49.640Z,7.53
2019-03-23T06:24:49.646Z,7.55
2019-03-23T06:25:49.617Z,7.58
2019-03-23T06:26:49.613Z,7.57
2019-03-23T06:27:49.594Z,7.52
2019-03-23T06:28:49.587Z,7.64
2019-03-23T06:29:49.596Z,7.60
2019-03-23T06:30:49.576Z,7.53
2019-03-23T06:31:49.539Z,7.61
2019-03-23T06:32:49.539Z,7.60
2019-03-23T06:33:49.526Z,7.71
2019-03-23T06:34:49.535Z,7.71
2019-03-23T06:35:49.501Z,7.72
2019-03-23T06:36:49.490Z,7.67
2019-03-23T06:37:49.482Z,7.72
2019-03-23T06:38:49.479Z,7.77
2019-03-23T06:39:49.487Z,7.77
2019-03-23T06:40:49.448Z,7.71
2019-03-23T06:41:49.437Z,7.80
2019-03-23T06:42:59.117Z,7.82
2019-03-23T06:43:50.415Z,7.89
2019-03-23T06:44:49.411Z,7.85
2019-03-23T06:45:49.412Z,7.92
2019-03-23T06:46:49.379Z,7.93
2019-03-23T06:47:49.364Z,7.97
2019-03-23T06:48:49.363Z,7.95
2019-03-23T06:49:49.386Z,8.00
2019-03-23T06:50:49.353Z,7.95
2019-03-23T06:51:49.328Z,7.98
2019-03-23T06:52:49.323Z,8.10
2019-03-23T06:53:49.310Z,8.02
2019-03-23T06:54:49.302Z,8.07
2019-03-23T06:55:49.310Z,8.05
2019-03-23T06:56:49.291Z,8.10
2019-03-23T06:57:49.264Z,8.11
2019-03-23T06:58:49.245Z,8.16
2019-03-23T06:59:49.236Z,8.12
2019-03-23T07:00:49.251Z,8.19
2019-03-23T07:01:49.217Z,8.22
2019-03-23T07:02:49.206Z,8.19
2019-03-23T07:03:49.191Z,8.25
2019-03-23T07:04:49.177Z,8.25
2019-03-23T07:05:49.207Z,8.36
2019-03-23T07:06:49.162Z,8.36
2019-03-23T07:07:49.172Z,8.33
2019-03-23T07:08:49.131Z,8.41
2019-03-23T07:09:49.127Z,8.41
2019-03-23T07:10:49.141Z,8.38
2019-03-23T07:11:49.110Z,8.38
2019-03-23T07:12:49.089Z,8.45
2019-03-23T07:13:49.086Z,8.44
2019-03-23T07:14:49.065Z,8.50
2019-03-23T07:15:49.079Z,8.52
2019-03-23T07:16:49.049Z,8.55
2019-03-23T07:17:49.097Z,8.52
2019-03-23T07:18:49.031Z,8.52
2019-03-23T07:19:49.019Z,8.58
2019-03-23T07:20:49.128Z,8.59
2019-03-23T07:21:49.003Z,8.62
2019-03-23T07:22:48.985Z,8.68
2019-03-23T07:23:48.974Z,8.61
2019-03-23T07:24:48.955Z,8.66
2019-03-23T07:25:49.004Z,8.70
2019-03-23T07:26:48.953Z,8.71
2019-03-23T07:27:48.925Z,8.74
2019-03-23T07:28:48.929Z,8.66
2019-03-23T07:29:48.921Z,8.74
2019-03-23T07:30:48.891Z,8.74
2019-03-23T07:31:48.898Z,8.77
2019-03-23T07:32:48.886Z,8.84
2019-03-23T07:33:48.861Z,8.92
2019-03-23T07:34:48.848Z,8.95
2019-03-23T07:35:48.846Z,8.89
2019-03-23T07:36:48.851Z,9.04
2019-03-23T07:37:48.817Z,8.98
2019-03-23T07:38:48.837Z,8.96
2019-03-23T07:39:48.802Z,9.10
2019-03-23T07:40:48.779Z,9.10
2019-03-23T07:41:48.793Z,9.13
2019-03-23T07:42:48.780Z,9.11
2019-03-23T07:43:48.749Z,9.18
2019-03-23T07:44:48.747Z,9.21
2019-03-23T07:45:48.725Z,9.20
2019-03-23T07:46:48.767Z,9.15
2019-03-23T07:47:48.706Z,9.23
2019-03-23T07:48:48.703Z,9.28
2019-03-23T07:49:48.688Z,9.33
2019-03-23T07:50:48.681Z,9.35
2019-03-23T07:51:48.688Z,9.39
2019-03-23T07:52:48.670Z,9.38
2019-03-23T07:53:48.648Z,9.47
2019-03-23T07:54:48.650Z,9.47
2019-03-23T07:55:48.616Z,9.54
2019-03-23T07:56:48.629Z,9.57
2019-03-23T07:57:48.595Z,9.61
2019-03-23T07:58:48.592Z,9.71
2019-03-23T07:59:48.580Z,9.76
2019-03-23T08:00:48.585Z,9.66
2019-03-23T08:01:48.590Z,9.72
2019-03-23T08:02:48.530Z,9.78
2019-03-23T08:03:48.536Z,9.83
2019-03-23T08:04:48.542Z,9.84
2019-03-23T08:05:48.507Z,9.87
2019-03-23T08:06:48.529Z,9.89
2019-03-23T08:07:48.492Z,9.99
2019-03-23T08:08:48.484Z,9.91
2019-03-23T08:09:48.461Z,10.02
2019-03-23T08:10:48.452Z,10.09
2019-03-23T08:11:48.455Z,10.09
2019-03-23T08:12:48.428Z,10.07
2019-03-23T08:13:48.424Z,10.14
2019-03-23T08:14:48.401Z,10.26
2019-03-23T08:15:48.394Z,10.22
2019-03-23T08:16:48.412Z,10.23
2019-03-23T08:17:48.381Z,10.26
2019-03-23T08:18:48.379Z,10.32
2019-03-23T08:19:48.373Z,10.34
2019-03-23T08:20:48.348Z,10.34
2019-03-23T08:21:48.352Z,10.42
2019-03-23T08:22:48.324Z,10.44
2019-03-23T08:23:48.323Z,10.45
2019-03-23T08:24:48.290Z,10.55
2019-03-23T08:25:48.283Z,10.52
2019-03-23T08:26:48.322Z,10.63
2019-03-23T08:27:48.272Z,10.61
2019-03-23T08:28:48.281Z,10.61
2019-03-23T08:29:48.232Z,10.76
2019-03-23T08:30:48.231Z,10.84
2019-03-23T08:31:48.284Z,10.91
2019-03-23T08:32:48.222Z,10.86
2019-03-23T08:33:48.199Z,10.88
2019-03-23T08:34:48.269Z,10.92
2019-03-23T08:35:48.190Z,10.91
2019-03-23T08:36:48.171Z,10.94
2019-03-23T08:37:48.148Z,11.03
2019-03-23T08:38:48.177Z,10.99
2019-03-23T08:39:48.863Z,10.97
2019-03-23T08:40:48.115Z,11.00
2019-03-23T08:41:48.149Z,11.04
2019-03-23T08:42:48.107Z,11.10
2019-03-23T08:43:48.088Z,11.10
2019-03-23T08:44:48.068Z,11.17
2019-03-23T08:45:48.082Z,11.21
2019-03-23T08:46:48.045Z,11.21
2019-03-23T08:47:48.074Z,11.19
2019-03-23T08:48:48.055Z,11.21
2019-03-23T08:49:48.030Z,11.33
2019-03-23T08:50:48.066Z,11.27
2019-03-23T08:51:48.015Z,11.27
2019-03-23T08:52:48.003Z,11.32
2019-03-23T08:53:48.005Z,11.40
2019-03-23T08:54:47.960Z,11.33
2019-03-23T08:55:47.971Z,11.37
2019-03-23T08:56:47.958Z,11.35
2019-03-23T08:57:47.967Z,11.35
2019-03-23T08:58:47.909Z,11.47
2019-03-23T08:59:47.909Z,11.46
2019-03-23T09:00:47.898Z,11.52
2019-03-23T09:01:47.888Z,11.58
2019-03-23T09:02:47.904Z,11.58
2019-03-23T09:03:52.349Z,11.60
2019-03-23T09:04:47.863Z,11.70
2019-03-23T09:05:47.842Z,11.65
2019-03-23T09:06:47.839Z,11.72
2019-03-23T09:07:47.853Z,11.78
2019-03-23T09:08:47.811Z,11.69
2019-03-23T09:09:47.802Z,11.79
2019-03-23T09:10:47.784Z,11.79
2019-03-23T09:11:47.771Z,11.94
2019-03-23T09:12:47.800Z,11.86
2019-03-23T09:13:47.757Z,11.99
2019-03-23T09:14:47.748Z,12.14
2019-03-23T09:15:47.730Z,12.23
2019-03-23T09:16:47.707Z,12.28
2019-03-23T09:17:47.736Z,12.31
2019-03-23T09:18:47.698Z,12.42
2019-03-23T09:19:47.699Z,12.39
2019-03-23T09:20:47.680Z,12.42
2019-03-23T09:21:47.669Z,12.52
2019-03-23T09:22:47.685Z,12.45
2019-03-23T09:23:47.647Z,12.50
2019-03-23T09:24:47.636Z,12.57
2019-03-23T09:25:47.626Z,12.57
2019-03-23T09:26:47.607Z,12.67
2019-03-23T09:27:47.616Z,12.72
2019-03-23T09:28:47.620Z,12.78
2019-03-23T09:29:47.587Z,12.86
2019-03-23T09:30:47.613Z,12.87
2019-03-23T09:31:47.542Z,12.83
2019-03-23T09:32:47.553Z,12.89
2019-03-23T09:33:47.522Z,12.79
2019-03-23T09:34:47.517Z,13.03
2019-03-23T09:35:47.506Z,12.96
2019-03-23T09:36:47.508Z,13.01
2019-03-23T09:37:47.507Z,13.12
2019-03-23T09:38:47.502Z,13.17
2019-03-23T09:39:47.462Z,13.03
2019-03-23T09:40:47.470Z,13.12
2019-03-23T09:41:47.447Z,13.08
2019-03-23T09:42:47.449Z,13.20
2019-03-23T09:43:47.417Z,13.20
2019-03-23T09:44:47.416Z,13.19
2019-03-23T09:45:47.409Z,13.26
2019-03-23T09:46:47.441Z,13.29
2019-03-23T09:47:47.395Z,13.20
2019-03-23T09:48:47.358Z,13.22
2019-03-23T09:49:47.354Z,13.25
2019-03-23T09:50:47.334Z,13.28
2019-03-23T09:51:47.337Z,13.36
2019-03-23T09:52:47.360Z,13.41
2019-03-23T09:53:47.313Z,13.39
2019-03-23T09:54:47.300Z,13.42
2019-03-23T09:55:47.291Z,13.52
2019-03-23T09:56:47.277Z,13.51
2019-03-23T09:57:47.284Z,13.51
2019-03-23T09:58:47.259Z,13.51
2019-03-23T09:59:47.243Z,13.60
2019-03-23T10:00:47.222Z,13.69
2019-03-23T10:01:47.236Z,13.60
2019-03-23T10:02:47.231Z,13.66
2019-03-23T10:03:47.205Z,13.75
2019-03-23T10:04:47.207Z,13.67
2019-03-23T10:05:47.178Z,13.78
2019-03-23T10:06:47.164Z,13.81
2019-03-23T10:07:47.162Z,13.77
2019-03-23T10:08:47.159Z,13.79
2019-03-23T10:09:47.137Z,13.84
2019-03-23T10:10:47.123Z,13.87
2019-03-23T10:11:47.102Z,13.84
2019-03-23T10:12:47.128Z,13.85
2019-03-23T10:13:47.089Z,13.79
2019-03-23T10:14:47.071Z,13.96
2019-03-23T10:15:47.091Z,13.88
2019-03-23T10:16:47.062Z,13.96
2019-03-23T10:17:47.053Z,13.91
2019-03-23T10:18:47.033Z,14.00
2019-03-23T10:19:47.045Z,14.04
2019-03-23T10:20:47.015Z,14.04
2019-03-23T10:21:47.002Z,14.12
2019-03-23T10:22:47.035Z,14.15
2019-03-23T10:23:46.983Z,14.18
2019-03-23T10:24:46.977Z,14.17
2019-03-23T10:25:46.959Z,14.20
2019-03-23T10:26:46.949Z,14.18
2019-03-23T10:27:46.950Z,14.21
2019-03-23T10:28:46.908Z,14.27
2019-03-23T10:29:46.911Z,14.28
2019-03-23T10:30:46.951Z,14.35
2019-03-23T10:31:46.893Z,14.25
2019-03-23T10:32:46.943Z,14.21
2019-03-23T10:33:46.856Z,14.25
2019-03-23T10:34:46.906Z,14.25
2019-03-23T10:35:46.835Z,14.21
2019-03-23T10:36:46.840Z,14.22
2019-03-23T10:37:46.831Z,14.24
2019-03-23T10:38:46.809Z,14.21
2019-03-23T10:39:46.802Z,14.27
2019-03-23T10:40:46.835Z,14.20
2019-03-23T10:41:46.780Z,14.18
2019-03-23T10:42:46.801Z,14.21
2019-03-23T10:43:46.761Z,14.20
2019-03-23T10:44:46.745Z,14.27
2019-03-23T10:45:46.734Z,14.25
2019-03-23T10:46:46.735Z,14.25
2019-03-23T10:47:46.840Z,14.21
2019-03-23T10:48:46.695Z,14.17
2019-03-23T10:49:46.699Z,14.24
2019-03-23T10:50:46.681Z,14.47
2019-03-23T10:51:46.666Z,14.52
2019-03-23T10:52:46.688Z,14.55
2019-03-23T10:53:46.650Z,14.72
2019-03-23T10:54:46.644Z,14.80
2019-03-23T10:55:46.613Z,14.77
2019-03-23T10:56:46.616Z,14.84
2019-03-23T10:57:46.610Z,14.86
2019-03-23T10:58:46.581Z,14.89
2019-03-23T10:59:46.575Z,14.81
2019-03-23T11:00:46.586Z,14.75
2019-03-23T11:01:46.586Z,14.72
2019-03-23T11:02:46.546Z,14.77
2019-03-23T11:03:46.541Z,14.72
2019-03-23T11:04:46.542Z,14.72
2019-03-23T11:05:46.513Z,14.61
2019-03-23T11:06:46.494Z,14.70
2019-03-23T11:07:46.543Z,14.68
2019-03-23T11:08:46.491Z,14.57
2019-03-23T11:09:46.473Z,14.62
2019-03-23T11:10:46.452Z,14.65
2019-03-23T11:11:46.459Z,14.61
2019-03-23T11:12:46.442Z,14.52
2019-03-23T11:13:46.416Z,14.50
2019-03-23T11:14:46.438Z,14.47
2019-03-23T11:15:46.392Z,14.57
2019-03-23T11:16:46.402Z,14.55
2019-03-23T11:17:46.389Z,14.62
2019-03-23T11:18:46.366Z,14.72
2019-03-23T11:19:46.352Z,14.86
2019-03-23T11:20:46.350Z,14.95
2019-03-23T11:21:46.337Z,15.11
2019-03-23T11:22:46.337Z,15.20
2019-03-23T11:23:46.309Z,15.16
2019-03-23T11:24:46.289Z,15.23
2019-03-23T11:25:46.290Z,15.13
2019-03-23T11:26:46.292Z,15.23
2019-03-23T11:27:46.288Z,15.20
2019-03-23T11:28:46.266Z,15.13
2019-03-23T11:29:46.267Z,15.07
2019-03-23T11:30:46.227Z,15.09
2019-03-23T11:31:46.224Z,15.03
2019-03-23T11:32:46.238Z,14.99
2019-03-23T11:33:46.242Z,15.11
2019-03-23T11:34:46.182Z,15.06
2019-03-23T11:35:46.181Z,15.02
2019-03-23T11:36:46.155Z,15.03
2019-03-23T11:37:46.370Z,14.88
2019-03-23T11:38:46.152Z,14.98
2019-03-23T11:39:46.140Z,14.89
2019-03-23T11:40:53.897Z,14.91
2019-03-23T11:41:47.111Z,14.86
2019-03-23T11:42:50.124Z,14.91
2019-03-23T11:43:46.100Z,14.92
2019-03-23T11:44:46.109Z,14.92
2019-03-23T11:45:46.057Z,14.96
2019-03-23T11:46:46.047Z,14.96
2019-03-23T11:47:46.101Z,14.95
2019-03-23T11:48:46.031Z,14.91
2019-03-23T11:49:46.025Z,14.92
2019-03-23T11:50:46.030Z,14.86
2019-03-23T11:51:46.023Z,14.80
2019-03-23T11:52:47.074Z,14.62
2019-03-23T11:53:45.980Z,14.60
2019-03-23T11:54:45.970Z,14.52
2019-03-23T11:55:45.953Z,14.40
2019-03-23T11:56:45.943Z,14.32
2019-03-23T11:57:45.973Z,14.28
2019-03-23T11:58:45.914Z,14.22
2019-03-23T11:59:45.912Z,14.15
2019-03-23T12:00:45.903Z,14.12
2019-03-23T12:01:51.776Z,14.09
2019-03-23T12:02:46.887Z,14.06
2019-03-23T12:03:45.887Z,13.96
2019-03-23T12:04:45.848Z,14.02
2019-03-23T12:05:45.842Z,13.97
2019-03-23T12:06:45.839Z,13.92
2019-03-23T12:07:45.844Z,13.97
2019-03-23T12:08:45.803Z,13.88
2019-03-23T12:09:45.791Z,13.87
2019-03-23T12:10:45.786Z,13.89
2019-03-23T12:11:45.784Z,13.77
2019-03-23T12:12:45.784Z,13.75
2019-03-23T12:13:45.759Z,13.63
2019-03-23T12:14:45.746Z,13.60
2019-03-23T12:15:45.721Z,13.55
2019-03-23T12:16:45.716Z,13.54
2019-03-23T12:17:45.752Z,13.54
2019-03-23T12:18:45.697Z,13.46
2019-03-23T12:19:45.707Z,13.39
2019-03-23T12:20:45.663Z,13.39
2019-03-23T12:21:45.666Z,13.29
2019-03-23T12:22:45.908Z,13.30
2019-03-23T12:23:45.645Z,13.04
2019-03-23T12:24:45.637Z,13.01
2019-03-23T12:25:45.619Z,12.96
2019-03-23T12:26:45.598Z,12.90
2019-03-23T12:27:45.609Z,12.82
2019-03-23T12:28:45.580Z,12.72
2019-03-23T12:29:45.587Z,12.78
2019-03-23T12:30:45.554Z,12.60
2019-03-23T12:31:45.554Z,12.57
2019-03-23T12:32:45.561Z,12.71
2019-03-23T12:33:45.524Z,12.59
2019-03-23T12:34:45.532Z,12.52
2019-03-23T12:35:45.508Z,12.53
2019-03-23T12:36:45.502Z,12.54
2019-03-23T12:37:45.487Z,12.34
2019-03-23T12:38:45.474Z,12.37
2019-03-23T12:39:45.472Z,12.46
2019-03-23T12:40:45.475Z,12.45
2019-03-23T12:41:45.427Z,12.35
2019-03-23T12:42:45.464Z,12.29
2019-03-23T12:43:45.411Z,12.24
2019-03-23T12:44:45.462Z,12.24
2019-03-23T12:45:45.403Z,12.28
2019-03-23T12:46:48.482Z,12.32
2019-03-23T12:47:45.406Z,12.31
2019-03-23T12:48:45.361Z,12.21
2019-03-23T12:49:45.357Z,12.34
2019-03-23T12:50:45.343Z,12.29
2019-03-23T12:51:45.331Z,12.27
2019-03-23T12:52:45.340Z,12.29
2019-03-23T12:53:45.332Z,12.21
2019-03-23T12:54:45.295Z,12.24
2019-03-23T12:55:45.281Z,12.20
2019-03-23T12:56:45.281Z,12.20
2019-03-23T12:57:45.280Z,12.31
2019-03-23T12:58:45.267Z,12.35
2019-03-23T12:59:45.232Z,12.29
2019-03-23T13:00:45.291Z,12.28
2019-03-23T13:01:45.235Z,12.28
2019-03-23T13:02:45.245Z,12.38
2019-03-23T13:03:45.244Z,12.42
2019-03-23T13:04:45.171Z,12.50
2019-03-23T13:05:45.163Z,12.52
2019-03-23T13:06:45.153Z,12.42
2019-03-23T13:07:45.176Z,12.38
2019-03-23T13:08:45.156Z,12.39